sensor_id;sensor_type;location;lat;lon;timestamp;P1;durP1;ratioP1;P2;durP2;ratioP2
44046;SDS011;29713;-33.888;151.150;2022-07-29T00:01:01;2.93;;;0.70;;
44046;SDS011;29713;-33.888;151.150;2022-07-29T00:03:28;2.53;;;0.70;;
44046;SDS011;29713;-33.888;151.150;2022-07-29T00:05:55;4.17;;;0.60;;
44046;SDS011;29713;-33.888;151.150;2022-07-29T00:08:23;2.30;;;0.60;;
44046;SDS011;29713;-33.888;151.150;2022-07-29T00:10:50;3.87;;;0.70;;
44046;SDS011;29713;-33.888;151.150;2022-07-29T00:13:17;4.23;;;0.70;;
44046;SDS011;29713;-33.888;151.150;2022-07-29T00:15:45;2.70;;;0.60;;
44046;SDS011;29713;-33.888;151.150;2022-07-29T00:18:12;4.00;;;0.70;;
44046;SDS011;29713;-33.888;151.150;2022-07-29T00:20:39;2.90;;;0.73;;
44046;SDS011;29713;-33.888;151.150;2022-07-29T00:23:07;3.20;;;0.93;;
44046;SDS011;29713;-33.888;151.150;2022-07-29T00:25:34;2.20;;;0.87;;
44046;SDS011;29713;-33.888;151.150;2022-07-29T00:28:01;2.40;;;0.67;;
44046;SDS011;29713;-33.888;151.150;2022-07-29T00:30:28;1.90;;;0.90;;
44046;SDS011;29713;-33.888;151.150;2022-07-29T00:32:56;1.60;;;0.80;;
44046;SDS011;29713;-33.888;151.150;2022-07-29T00:35:23;1.30;;;0.70;;
44046;SDS011;29713;-33.888;151.150;2022-07-29T00:38:09;2.83;;;0.77;;
44046;SDS011;29713;-33.888;151.150;2022-07-29T00:40:38;3.23;;;0.67;;
44046;SDS011;29713;-33.888;151.150;2022-07-29T00:43:05;2.77;;;0.87;;
44046;SDS011;29713;-33.888;151.150;2022-07-29T00:45:33;2.43;;;0.60;;
44046;SDS011;29713;-33.888;151.150;2022-07-29T00:48:01;2.03;;;0.60;;
44046;SDS011;29713;-33.888;151.150;2022-07-29T00:50:30;1.93;;;0.70;;
44046;SDS011;29713;-33.888;151.150;2022-07-29T00:52:58;1.30;;;0.63;;
44046;SDS011;29713;-33.888;151.150;2022-07-29T00:55:26;2.77;;;0.80;;
44046;SDS011;29713;-33.888;151.150;2022-07-29T00:57:55;1.40;;;0.60;;
44046;SDS011;29713;-33.888;151.150;2022-07-29T01:00:25;2.87;;;0.60;;
44046;SDS011;29713;-33.888;151.150;2022-07-29T01:02:54;3.23;;;0.90;;
44046;SDS011;29713;-33.888;151.150;2022-07-29T01:05:22;1.83;;;0.73;;
44046;SDS011;29713;-33.888;151.150;2022-07-29T01:07:51;2.80;;;0.77;;
44046;SDS011;29713;-33.888;151.150;2022-07-29T01:10:20;3.63;;;0.80;;
44046;SDS011;29713;-33.888;151.150;2022-07-29T01:12:49;2.58;;;0.85;;
44046;SDS011;29713;-33.888;151.150;2022-07-29T01:15:20;0.82;;;0.80;;
44046;SDS011;29713;-33.888;151.150;2022-07-29T01:23:18;1.58;;;0.70;;
44046;SDS011;29713;-33.888;151.150;2022-07-29T01:29:11;1.48;;;0.80;;
44046;SDS011;29713;-33.888;151.150;2022-07-29T01:31:50;1.52;;;0.65;;
44046;SDS011;29713;-33.888;151.150;2022-07-29T01:34:29;2.53;;;0.73;;
44046;SDS011;29713;-33.888;151.150;2022-07-29T01:39:49;0.77;;;0.60;;
44046;SDS011;29713;-33.888;151.150;2022-07-29T01:44:56;1.35;;;0.57;;
44046;SDS011;29713;-33.888;151.150;2022-07-29T01:47:46;2.15;;;0.65;;
44046;SDS011;29713;-33.888;151.150;2022-07-29T01:50:23;1.90;;;0.60;;
44046;SDS011;29713;-33.888;151.150;2022-07-29T01:52:59;2.78;;;0.77;;
44046;SDS011;29713;-33.888;151.150;2022-07-29T01:55:29;0.93;;;0.57;;
44046;SDS011;29713;-33.888;151.150;2022-07-29T01:58:00;1.30;;;0.52;;
44046;SDS011;29713;-33.888;151.150;2022-07-29T02:00:32;0.88;;;0.50;;
44046;SDS011;29713;-33.888;151.150;2022-07-29T02:03:02;0.98;;;0.63;;
44046;SDS011;29713;-33.888;151.150;2022-07-29T02:05:37;1.27;;;0.60;;
44046;SDS011;29713;-33.888;151.150;2022-07-29T02:08:07;2.97;;;0.75;;
44046;SDS011;29713;-33.888;151.150;2022-07-29T02:10:36;2.20;;;0.60;;
44046;SDS011;29713;-33.888;151.150;2022-07-29T02:13:06;2.33;;;0.60;;
44046;SDS011;29713;-33.888;151.150;2022-07-29T02:15:35;2.45;;;0.65;;
44046;SDS011;29713;-33.888;151.150;2022-07-29T02:18:11;2.75;;;0.80;;
44046;SDS011;29713;-33.888;151.150;2022-07-29T02:20:50;2.15;;;0.60;;
44046;SDS011;29713;-33.888;151.150;2022-07-29T02:23:23;2.03;;;0.73;;
44046;SDS011;29713;-33.888;151.150;2022-07-29T02:25:53;0.80;;;0.60;;
44046;SDS011;29713;-33.888;151.150;2022-07-29T02:28:24;1.75;;;0.60;;
44046;SDS011;29713;-33.888;151.150;2022-07-29T02:30:55;0.75;;;0.52;;
44046;SDS011;29713;-33.888;151.150;2022-07-29T02:33:25;1.38;;;0.70;;
44046;SDS011;29713;-33.888;151.150;2022-07-29T02:35:55;1.77;;;0.52;;
44046;SDS011;29713;-33.888;151.150;2022-07-29T02:38:24;2.88;;;0.70;;
44046;SDS011;29713;-33.888;151.150;2022-07-29T02:41:12;1.30;;;0.50;;
44046;SDS011;29713;-33.888;151.150;2022-07-29T02:43:43;0.90;;;0.60;;
44046;SDS011;29713;-33.888;151.150;2022-07-29T02:46:19;1.63;;;0.75;;
44046;SDS011;29713;-33.888;151.150;2022-07-29T02:49:01;2.38;;;0.70;;
44046;SDS011;29713;-33.888;151.150;2022-07-29T02:51:45;1.50;;;0.60;;
44046;SDS011;29713;-33.888;151.150;2022-07-29T02:54:23;1.73;;;0.50;;
44046;SDS011;29713;-33.888;151.150;2022-07-29T02:57:00;3.33;;;0.80;;
44046;SDS011;29713;-33.888;151.150;2022-07-29T02:59:34;2.67;;;0.60;;
44046;SDS011;29713;-33.888;151.150;2022-07-29T03:02:06;3.13;;;0.50;;
44046;SDS011;29713;-33.888;151.150;2022-07-29T03:04:35;1.52;;;0.68;;
44046;SDS011;29713;-33.888;151.150;2022-07-29T03:07:07;0.57;;;0.32;;
44046;SDS011;29713;-33.888;151.150;2022-07-29T03:09:37;1.00;;;0.40;;
44046;SDS011;29713;-33.888;151.150;2022-07-29T03:12:05;1.48;;;0.50;;
44046;SDS011;29713;-33.888;151.150;2022-07-29T03:14:32;2.83;;;0.70;;
44046;SDS011;29713;-33.888;151.150;2022-07-29T03:17:01;1.38;;;0.60;;
44046;SDS011;29713;-33.888;151.150;2022-07-29T03:19:29;1.55;;;0.60;;
44046;SDS011;29713;-33.888;151.150;2022-07-29T03:21:58;1.60;;;0.60;;
44046;SDS011;29713;-33.888;151.150;2022-07-29T03:24:26;1.83;;;0.52;;
44046;SDS011;29713;-33.888;151.150;2022-07-29T03:26:55;26.38;;;2.47;;
44046;SDS011;29713;-33.888;151.150;2022-07-29T03:29:23;0.77;;;0.50;;
44046;SDS011;29713;-33.888;151.150;2022-07-29T03:31:51;8.23;;;1.00;;
44046;SDS011;29713;-33.888;151.150;2022-07-29T03:34:19;2.05;;;0.50;;
44046;SDS011;29713;-33.888;151.150;2022-07-29T03:36:47;3.53;;;0.70;;
44046;SDS011;29713;-33.888;151.150;2022-07-29T03:39:17;5.82;;;0.90;;
44046;SDS011;29713;-33.888;151.150;2022-07-29T03:41:48;3.38;;;0.65;;
44046;SDS011;29713;-33.888;151.150;2022-07-29T03:44:18;6.15;;;1.33;;
44046;SDS011;29713;-33.888;151.150;2022-07-29T03:46:47;8.18;;;1.00;;
44046;SDS011;29713;-33.888;151.150;2022-07-29T03:49:17;2.28;;;1.02;;
44046;SDS011;29713;-33.888;151.150;2022-07-29T03:51:46;2.03;;;0.80;;
44046;SDS011;29713;-33.888;151.150;2022-07-29T03:54:13;10.70;;;1.50;;
44046;SDS011;29713;-33.888;151.150;2022-07-29T03:56:42;3.97;;;0.88;;
44046;SDS011;29713;-33.888;151.150;2022-07-29T03:59:15;2.28;;;0.82;;
44046;SDS011;29713;-33.888;151.150;2022-07-29T04:01:45;1.45;;;0.60;;
44046;SDS011;29713;-33.888;151.150;2022-07-29T04:04:13;2.10;;;0.80;;
44046;SDS011;29713;-33.888;151.150;2022-07-29T04:06:42;1.38;;;0.55;;
44046;SDS011;29713;-33.888;151.150;2022-07-29T04:09:11;1.83;;;0.60;;
44046;SDS011;29713;-33.888;151.150;2022-07-29T04:11:39;2.13;;;0.70;;
44046;SDS011;29713;-33.888;151.150;2022-07-29T04:14:08;1.90;;;0.80;;
44046;SDS011;29713;-33.888;151.150;2022-07-29T04:16:35;4.15;;;0.73;;
44046;SDS011;29713;-33.888;151.150;2022-07-29T04:19:02;1.80;;;0.75;;
44046;SDS011;29713;-33.888;151.150;2022-07-29T04:21:30;2.38;;;0.55;;
44046;SDS011;29713;-33.888;151.150;2022-07-29T04:23:57;0.93;;;0.63;;
44046;SDS011;29713;-33.888;151.150;2022-07-29T04:26:25;3.05;;;0.90;;
44046;SDS011;29713;-33.888;151.150;2022-07-29T04:28:52;3.10;;;0.52;;
44046;SDS011;29713;-33.888;151.150;2022-07-29T04:31:19;4.07;;;1.00;;
44046;SDS011;29713;-33.888;151.150;2022-07-29T04:33:46;2.88;;;0.70;;
44046;SDS011;29713;-33.888;151.150;2022-07-29T04:36:14;1.85;;;0.98;;
44046;SDS011;29713;-33.888;151.150;2022-07-29T04:38:41;2.17;;;1.15;;
44046;SDS011;29713;-33.888;151.150;2022-07-29T04:41:08;5.50;;;1.00;;
44046;SDS011;29713;-33.888;151.150;2022-07-29T04:43:36;1.88;;;0.73;;
44046;SDS011;29713;-33.888;151.150;2022-07-29T04:46:03;6.03;;;1.00;;
44046;SDS011;29713;-33.888;151.150;2022-07-29T04:48:32;2.47;;;0.70;;
44046;SDS011;29713;-33.888;151.150;2022-07-29T04:50:59;1.52;;;0.70;;
44046;SDS011;29713;-33.888;151.150;2022-07-29T04:53:27;2.75;;;0.70;;
44046;SDS011;29713;-33.888;151.150;2022-07-29T04:55:54;2.80;;;0.63;;
44046;SDS011;29713;-33.888;151.150;2022-07-29T04:58:21;2.42;;;0.82;;
44046;SDS011;29713;-33.888;151.150;2022-07-29T05:00:49;3.65;;;0.68;;
44046;SDS011;29713;-33.888;151.150;2022-07-29T05:03:18;2.17;;;1.00;;
44046;SDS011;29713;-33.888;151.150;2022-07-29T05:05:45;3.08;;;0.85;;
44046;SDS011;29713;-33.888;151.150;2022-07-29T05:08:13;3.35;;;0.80;;
44046;SDS011;29713;-33.888;151.150;2022-07-29T05:10:40;2.17;;;0.57;;
44046;SDS011;29713;-33.888;151.150;2022-07-29T05:13:07;1.35;;;0.65;;
44046;SDS011;29713;-33.888;151.150;2022-07-29T05:15:35;1.67;;;0.70;;
44046;SDS011;29713;-33.888;151.150;2022-07-29T05:18:04;7.68;;;1.42;;
44046;SDS011;29713;-33.888;151.150;2022-07-29T05:20:32;3.67;;;0.80;;
44046;SDS011;29713;-33.888;151.150;2022-07-29T05:23:00;1.55;;;0.90;;
44046;SDS011;29713;-33.888;151.150;2022-07-29T05:25:28;1.40;;;0.77;;
44046;SDS011;29713;-33.888;151.150;2022-07-29T05:27:56;2.30;;;1.05;;
44046;SDS011;29713;-33.888;151.150;2022-07-29T05:30:24;3.58;;;0.82;;
44046;SDS011;29713;-33.888;151.150;2022-07-29T05:32:51;3.38;;;0.80;;
44046;SDS011;29713;-33.888;151.150;2022-07-29T05:35:19;2.38;;;1.00;;
44046;SDS011;29713;-33.888;151.150;2022-07-29T05:37:46;0.40;;;0.40;;
44046;SDS011;29713;-33.888;151.150;2022-07-29T05:40:13;1.58;;;0.60;;
44046;SDS011;29713;-33.888;151.150;2022-07-29T05:42:41;2.30;;;0.70;;
44046;SDS011;29713;-33.888;151.150;2022-07-29T05:45:08;2.35;;;0.70;;
44046;SDS011;29713;-33.888;151.150;2022-07-29T05:47:36;2.70;;;0.68;;
44046;SDS011;29713;-33.888;151.150;2022-07-29T05:50:03;2.92;;;0.85;;
44046;SDS011;29713;-33.888;151.150;2022-07-29T05:52:31;1.58;;;0.75;;
44046;SDS011;29713;-33.888;151.150;2022-07-29T05:54:58;1.60;;;0.80;;
44046;SDS011;29713;-33.888;151.150;2022-07-29T05:57:29;0.90;;;0.70;;
44046;SDS011;29713;-33.888;151.150;2022-07-29T05:59:57;3.00;;;0.90;;
44046;SDS011;29713;-33.888;151.150;2022-07-29T06:02:24;2.87;;;0.70;;
44046;SDS011;29713;-33.888;151.150;2022-07-29T06:04:52;3.03;;;0.63;;
44046;SDS011;29713;-33.888;151.150;2022-07-29T06:07:19;3.23;;;0.70;;
44046;SDS011;29713;-33.888;151.150;2022-07-29T06:09:47;4.40;;;0.90;;
44046;SDS011;29713;-33.888;151.150;2022-07-29T06:12:14;2.67;;;0.70;;
44046;SDS011;29713;-33.888;151.150;2022-07-29T06:14:41;3.70;;;0.70;;
44046;SDS011;29713;-33.888;151.150;2022-07-29T06:17:08;3.47;;;0.60;;
44046;SDS011;29713;-33.888;151.150;2022-07-29T06:19:37;3.17;;;0.83;;
44046;SDS011;29713;-33.888;151.150;2022-07-29T06:22:04;3.43;;;0.83;;
44046;SDS011;29713;-33.888;151.150;2022-07-29T06:24:31;1.80;;;0.83;;
44046;SDS011;29713;-33.888;151.150;2022-07-29T06:26:59;2.53;;;1.00;;
44046;SDS011;29713;-33.888;151.150;2022-07-29T06:29:26;3.13;;;1.10;;
44046;SDS011;29713;-33.888;151.150;2022-07-29T06:31:53;2.93;;;0.70;;
44046;SDS011;29713;-33.888;151.150;2022-07-29T06:34:21;4.03;;;0.90;;
44046;SDS011;29713;-33.888;151.150;2022-07-29T06:36:48;2.47;;;0.90;;
44046;SDS011;29713;-33.888;151.150;2022-07-29T06:39:16;3.53;;;1.03;;
44046;SDS011;29713;-33.888;151.150;2022-07-29T06:41:45;4.33;;;0.93;;
44046;SDS011;29713;-33.888;151.150;2022-07-29T06:44:17;2.97;;;1.00;;
44046;SDS011;29713;-33.888;151.150;2022-07-29T06:46:44;4.30;;;0.90;;
44046;SDS011;29713;-33.888;151.150;2022-07-29T06:49:14;2.67;;;0.80;;
44046;SDS011;29713;-33.888;151.150;2022-07-29T06:51:42;4.33;;;0.70;;
44046;SDS011;29713;-33.888;151.150;2022-07-29T06:54:09;2.10;;;0.87;;
44046;SDS011;29713;-33.888;151.150;2022-07-29T06:56:36;3.80;;;0.97;;
44046;SDS011;29713;-33.888;151.150;2022-07-29T06:59:07;2.33;;;1.00;;
44046;SDS011;29713;-33.888;151.150;2022-07-29T07:01:39;3.37;;;0.90;;
44046;SDS011;29713;-33.888;151.150;2022-07-29T07:04:07;4.33;;;1.10;;
44046;SDS011;29713;-33.888;151.150;2022-07-29T07:06:36;2.37;;;1.20;;
44046;SDS011;29713;-33.888;151.150;2022-07-29T07:09:03;3.07;;;1.33;;
44046;SDS011;29713;-33.888;151.150;2022-07-29T07:11:31;2.00;;;1.03;;
44046;SDS011;29713;-33.888;151.150;2022-07-29T07:13:58;2.30;;;1.13;;
44046;SDS011;29713;-33.888;151.150;2022-07-29T07:16:26;3.03;;;1.20;;
44046;SDS011;29713;-33.888;151.150;2022-07-29T07:18:53;4.20;;;1.13;;
44046;SDS011;29713;-33.888;151.150;2022-07-29T07:21:20;5.23;;;1.00;;
44046;SDS011;29713;-33.888;151.150;2022-07-29T07:23:48;3.27;;;0.97;;
44046;SDS011;29713;-33.888;151.150;2022-07-29T07:26:15;4.80;;;1.40;;
44046;SDS011;29713;-33.888;151.150;2022-07-29T07:28:42;2.83;;;0.90;;
44046;SDS011;29713;-33.888;151.150;2022-07-29T07:31:10;1.90;;;0.90;;
44046;SDS011;29713;-33.888;151.150;2022-07-29T07:33:38;3.20;;;0.80;;
44046;SDS011;29713;-33.888;151.150;2022-07-29T07:36:05;3.33;;;0.93;;
44046;SDS011;29713;-33.888;151.150;2022-07-29T07:38:33;2.90;;;1.10;;
44046;SDS011;29713;-33.888;151.150;2022-07-29T07:41:00;2.13;;;1.10;;
44046;SDS011;29713;-33.888;151.150;2022-07-29T07:43:28;3.47;;;1.33;;
44046;SDS011;29713;-33.888;151.150;2022-07-29T07:45:55;5.43;;;1.63;;
44046;SDS011;29713;-33.888;151.150;2022-07-29T07:48:23;4.13;;;1.50;;
44046;SDS011;29713;-33.888;151.150;2022-07-29T07:50:50;5.73;;;1.50;;
44046;SDS011;29713;-33.888;151.150;2022-07-29T07:53:17;3.07;;;1.30;;
44046;SDS011;29713;-33.888;151.150;2022-07-29T07:55:45;4.90;;;1.37;;
44046;SDS011;29713;-33.888;151.150;2022-07-29T07:58:12;3.90;;;1.43;;
44046;SDS011;29713;-33.888;151.150;2022-07-29T08:00:39;3.03;;;1.20;;
44046;SDS011;29713;-33.888;151.150;2022-07-29T08:03:07;3.17;;;1.20;;
44046;SDS011;29713;-33.888;151.150;2022-07-29T08:05:37;3.07;;;1.30;;
44046;SDS011;29713;-33.888;151.150;2022-07-29T08:08:08;6.43;;;1.70;;
44046;SDS011;29713;-33.888;151.150;2022-07-29T08:10:35;4.87;;;1.60;;
44046;SDS011;29713;-33.888;151.150;2022-07-29T08:13:22;3.57;;;1.50;;
44046;SDS011;29713;-33.888;151.150;2022-07-29T08:15:52;4.43;;;1.30;;
44046;SDS011;29713;-33.888;151.150;2022-07-29T08:18:23;3.90;;;1.30;;
44046;SDS011;29713;-33.888;151.150;2022-07-29T08:20:51;3.93;;;1.30;;
44046;SDS011;29713;-33.888;151.150;2022-07-29T08:23:19;7.37;;;1.40;;
44046;SDS011;29713;-33.888;151.150;2022-07-29T08:25:46;3.43;;;1.30;;
44046;SDS011;29713;-33.888;151.150;2022-07-29T08:28:14;4.63;;;1.30;;
44046;SDS011;29713;-33.888;151.150;2022-07-29T08:30:41;5.10;;;1.60;;
44046;SDS011;29713;-33.888;151.150;2022-07-29T08:33:09;3.40;;;1.63;;
44046;SDS011;29713;-33.888;151.150;2022-07-29T08:35:36;3.17;;;1.20;;
44046;SDS011;29713;-33.888;151.150;2022-07-29T08:38:05;5.23;;;1.57;;
44046;SDS011;29713;-33.888;151.150;2022-07-29T08:40:33;3.70;;;1.20;;
44046;SDS011;29713;-33.888;151.150;2022-07-29T08:43:07;7.17;;;1.80;;
44046;SDS011;29713;-33.888;151.150;2022-07-29T08:45:52;5.27;;;2.00;;
44046;SDS011;29713;-33.888;151.150;2022-07-29T08:48:20;5.27;;;2.77;;
44046;SDS011;29713;-33.888;151.150;2022-07-29T08:50:56;5.43;;;2.47;;
44046;SDS011;29713;-33.888;151.150;2022-07-29T08:53:24;6.50;;;2.33;;
44046;SDS011;29713;-33.888;151.150;2022-07-29T08:55:54;5.37;;;2.27;;
44046;SDS011;29713;-33.888;151.150;2022-07-29T08:58:23;3.63;;;2.27;;
44046;SDS011;29713;-33.888;151.150;2022-07-29T09:00:55;4.30;;;1.93;;
44046;SDS011;29713;-33.888;151.150;2022-07-29T09:03:24;6.17;;;2.07;;
44046;SDS011;29713;-33.888;151.150;2022-07-29T09:05:55;4.90;;;1.83;;
44046;SDS011;29713;-33.888;151.150;2022-07-29T09:08:27;5.77;;;2.17;;
44046;SDS011;29713;-33.888;151.150;2022-07-29T09:10:54;10.27;;;3.47;;
44046;SDS011;29713;-33.888;151.150;2022-07-29T09:13:22;7.23;;;2.37;;
44046;SDS011;29713;-33.888;151.150;2022-07-29T09:15:50;6.03;;;2.20;;
44046;SDS011;29713;-33.888;151.150;2022-07-29T09:18:38;5.33;;;2.40;;
44046;SDS011;29713;-33.888;151.150;2022-07-29T09:21:08;7.70;;;3.67;;
44046;SDS011;29713;-33.888;151.150;2022-07-29T09:26:28;6.93;;;3.33;;
44046;SDS011;29713;-33.888;151.150;2022-07-29T09:28:57;7.53;;;3.60;;
44046;SDS011;29713;-33.888;151.150;2022-07-29T09:31:44;4.00;;;2.37;;
44046;SDS011;29713;-33.888;151.150;2022-07-29T09:34:30;4.23;;;1.90;;
44046;SDS011;29713;-33.888;151.150;2022-07-29T09:36:57;6.37;;;2.60;;
44046;SDS011;29713;-33.888;151.150;2022-07-29T09:39:29;6.70;;;2.40;;
44046;SDS011;29713;-33.888;151.150;2022-07-29T09:41:59;9.57;;;4.00;;
44046;SDS011;29713;-33.888;151.150;2022-07-29T09:44:40;11.73;;;3.37;;
44046;SDS011;29713;-33.888;151.150;2022-07-29T09:47:08;6.77;;;3.20;;
44046;SDS011;29713;-33.888;151.150;2022-07-29T09:49:49;6.47;;;2.53;;
44046;SDS011;29713;-33.888;151.150;2022-07-29T09:52:19;8.63;;;3.00;;
44046;SDS011;29713;-33.888;151.150;2022-07-29T09:54:47;4.57;;;2.27;;
44046;SDS011;29713;-33.888;151.150;2022-07-29T09:57:24;5.13;;;2.10;;
44046;SDS011;29713;-33.888;151.150;2022-07-29T09:59:57;5.27;;;2.77;;
44046;SDS011;29713;-33.888;151.150;2022-07-29T10:02:33;8.47;;;3.20;;
44046;SDS011;29713;-33.888;151.150;2022-07-29T10:05:02;5.93;;;2.50;;
44046;SDS011;29713;-33.888;151.150;2022-07-29T10:10:11;6.97;;;2.30;;
44046;SDS011;29713;-33.888;151.150;2022-07-29T10:12:51;6.10;;;2.50;;
44046;SDS011;29713;-33.888;151.150;2022-07-29T10:15:24;5.00;;;2.40;;
44046;SDS011;29713;-33.888;151.150;2022-07-29T10:17:54;9.23;;;3.97;;
44046;SDS011;29713;-33.888;151.150;2022-07-29T10:20:22;10.40;;;3.57;;
44046;SDS011;29713;-33.888;151.150;2022-07-29T10:22:50;5.73;;;3.30;;
44046;SDS011;29713;-33.888;151.150;2022-07-29T10:25:19;7.60;;;3.17;;
44046;SDS011;29713;-33.888;151.150;2022-07-29T10:27:47;11.10;;;3.13;;
44046;SDS011;29713;-33.888;151.150;2022-07-29T10:30:17;11.27;;;3.90;;
44046;SDS011;29713;-33.888;151.150;2022-07-29T10:44:38;5.47;;;2.87;;
44046;SDS011;29713;-33.888;151.150;2022-07-29T10:47:06;5.37;;;2.33;;
44046;SDS011;29713;-33.888;151.150;2022-07-29T10:49:34;9.10;;;2.80;;
44046;SDS011;29713;-33.888;151.150;2022-07-29T10:52:08;6.10;;;2.60;;
44046;SDS011;29713;-33.888;151.150;2022-07-29T10:57:29;4.63;;;2.17;;
44046;SDS011;29713;-33.888;151.150;2022-07-29T11:05:06;5.27;;;2.30;;
44046;SDS011;29713;-33.888;151.150;2022-07-29T11:07:39;6.93;;;2.50;;
44046;SDS011;29713;-33.888;151.150;2022-07-29T11:10:26;4.67;;;2.20;;
44046;SDS011;29713;-33.888;151.150;2022-07-29T11:12:53;5.97;;;2.50;;
44046;SDS011;29713;-33.888;151.150;2022-07-29T11:15:21;6.20;;;2.83;;
44046;SDS011;29713;-33.888;151.150;2022-07-29T11:20:52;5.43;;;2.50;;
44046;SDS011;29713;-33.888;151.150;2022-07-29T11:23:23;7.67;;;3.17;;
44046;SDS011;29713;-33.888;151.150;2022-07-29T11:31:40;6.47;;;3.07;;
44046;SDS011;29713;-33.888;151.150;2022-07-29T11:37:32;5.00;;;2.80;;
44046;SDS011;29713;-33.888;151.150;2022-07-29T11:44:54;8.40;;;2.60;;
44046;SDS011;29713;-33.888;151.150;2022-07-29T11:47:24;4.43;;;2.60;;
44046;SDS011;29713;-33.888;151.150;2022-07-29T11:49:53;7.57;;;2.90;;
44046;SDS011;29713;-33.888;151.150;2022-07-29T11:52:22;5.30;;;2.67;;
44046;SDS011;29713;-33.888;151.150;2022-07-29T11:54:58;4.10;;;2.60;;
44046;SDS011;29713;-33.888;151.150;2022-07-29T11:57:30;5.33;;;2.90;;
44046;SDS011;29713;-33.888;151.150;2022-07-29T11:59:57;6.60;;;2.80;;
44046;SDS011;29713;-33.888;151.150;2022-07-29T12:02:25;5.03;;;2.73;;
44046;SDS011;29713;-33.888;151.150;2022-07-29T12:05:07;6.83;;;3.23;;
44046;SDS011;29713;-33.888;151.150;2022-07-29T12:07:37;5.87;;;2.90;;
44046;SDS011;29713;-33.888;151.150;2022-07-29T12:10:05;7.97;;;3.17;;
44046;SDS011;29713;-33.888;151.150;2022-07-29T12:12:33;6.23;;;2.77;;
44046;SDS011;29713;-33.888;151.150;2022-07-29T12:15:11;9.20;;;2.90;;
44046;SDS011;29713;-33.888;151.150;2022-07-29T12:17:49;6.77;;;3.10;;
44046;SDS011;29713;-33.888;151.150;2022-07-29T12:20:24;5.83;;;2.50;;
44046;SDS011;29713;-33.888;151.150;2022-07-29T12:22:53;5.53;;;2.00;;
44046;SDS011;29713;-33.888;151.150;2022-07-29T12:25:21;5.60;;;2.80;;
44046;SDS011;29713;-33.888;151.150;2022-07-29T12:28:23;8.80;;;2.97;;
44046;SDS011;29713;-33.888;151.150;2022-07-29T12:30:45;6.50;;;2.90;;
44046;SDS011;29713;-33.888;151.150;2022-07-29T12:33:24;8.57;;;3.10;;
44046;SDS011;29713;-33.888;151.150;2022-07-29T12:35:58;5.63;;;2.43;;
44046;SDS011;29713;-33.888;151.150;2022-07-29T12:38:28;5.20;;;2.27;;
44046;SDS011;29713;-33.888;151.150;2022-07-29T12:40:55;5.77;;;3.13;;
44046;SDS011;29713;-33.888;151.150;2022-07-29T12:43:23;11.47;;;2.67;;
44046;SDS011;29713;-33.888;151.150;2022-07-29T12:45:52;6.77;;;2.97;;
44046;SDS011;29713;-33.888;151.150;2022-07-29T12:48:36;5.90;;;2.40;;
44046;SDS011;29713;-33.888;151.150;2022-07-29T12:51:05;7.97;;;2.60;;
44046;SDS011;29713;-33.888;151.150;2022-07-29T12:53:34;6.97;;;2.50;;
44046;SDS011;29713;-33.888;151.150;2022-07-29T12:56:03;6.00;;;2.63;;
44046;SDS011;29713;-33.888;151.150;2022-07-29T12:58:32;4.90;;;2.73;;
44046;SDS011;29713;-33.888;151.150;2022-07-29T13:01:09;7.93;;;3.13;;
44046;SDS011;29713;-33.888;151.150;2022-07-29T13:06:34;6.47;;;3.00;;
44046;SDS011;29713;-33.888;151.150;2022-07-29T13:09:17;8.03;;;2.83;;
44046;SDS011;29713;-33.888;151.150;2022-07-29T13:11:49;5.03;;;2.80;;
44046;SDS011;29713;-33.888;151.150;2022-07-29T13:14:34;7.13;;;2.53;;
44046;SDS011;29713;-33.888;151.150;2022-07-29T13:17:10;6.50;;;2.73;;
44046;SDS011;29713;-33.888;151.150;2022-07-29T13:19:47;4.40;;;2.50;;
44046;SDS011;29713;-33.888;151.150;2022-07-29T13:22:20;6.93;;;2.93;;
44046;SDS011;29713;-33.888;151.150;2022-07-29T13:24:52;5.93;;;2.40;;
44046;SDS011;29713;-33.888;151.150;2022-07-29T13:27:22;5.67;;;2.97;;
44046;SDS011;29713;-33.888;151.150;2022-07-29T13:29:53;6.90;;;2.90;;
44046;SDS011;29713;-33.888;151.150;2022-07-29T13:32:25;7.20;;;2.87;;
44046;SDS011;29713;-33.888;151.150;2022-07-29T13:34:54;6.40;;;3.30;;
44046;SDS011;29713;-33.888;151.150;2022-07-29T13:37:22;6.03;;;3.17;;
44046;SDS011;29713;-33.888;151.150;2022-07-29T13:39:50;7.00;;;3.20;;
44046;SDS011;29713;-33.888;151.150;2022-07-29T13:42:18;19.33;;;3.30;;
44046;SDS011;29713;-33.888;151.150;2022-07-29T13:44:46;6.07;;;2.57;;
44046;SDS011;29713;-33.888;151.150;2022-07-29T13:47:16;5.77;;;2.83;;
44046;SDS011;29713;-33.888;151.150;2022-07-29T13:49:44;6.87;;;2.77;;
44046;SDS011;29713;-33.888;151.150;2022-07-29T13:52:11;7.57;;;2.90;;
44046;SDS011;29713;-33.888;151.150;2022-07-29T13:54:39;5.13;;;2.50;;
44046;SDS011;29713;-33.888;151.150;2022-07-29T13:57:06;4.87;;;2.43;;
44046;SDS011;29713;-33.888;151.150;2022-07-29T13:59:36;7.10;;;2.63;;
44046;SDS011;29713;-33.888;151.150;2022-07-29T14:02:03;7.60;;;2.80;;
44046;SDS011;29713;-33.888;151.150;2022-07-29T14:04:31;8.30;;;2.67;;
44046;SDS011;29713;-33.888;151.150;2022-07-29T14:06:59;5.23;;;2.13;;
44046;SDS011;29713;-33.888;151.150;2022-07-29T14:09:26;5.20;;;2.70;;
44046;SDS011;29713;-33.888;151.150;2022-07-29T14:11:54;8.37;;;2.90;;
44046;SDS011;29713;-33.888;151.150;2022-07-29T14:14:21;7.13;;;2.57;;
44046;SDS011;29713;-33.888;151.150;2022-07-29T14:16:49;8.37;;;3.07;;
44046;SDS011;29713;-33.888;151.150;2022-07-29T14:19:16;5.07;;;2.80;;
44046;SDS011;29713;-33.888;151.150;2022-07-29T14:21:43;10.77;;;2.87;;
44046;SDS011;29713;-33.888;151.150;2022-07-29T14:24:10;6.80;;;2.50;;
44046;SDS011;29713;-33.888;151.150;2022-07-29T14:26:38;4.93;;;2.40;;
44046;SDS011;29713;-33.888;151.150;2022-07-29T14:29:05;6.20;;;2.53;;
44046;SDS011;29713;-33.888;151.150;2022-07-29T14:31:32;5.30;;;2.60;;
44046;SDS011;29713;-33.888;151.150;2022-07-29T14:34:00;3.97;;;2.23;;
44046;SDS011;29713;-33.888;151.150;2022-07-29T14:36:27;7.53;;;2.97;;
44046;SDS011;29713;-33.888;151.150;2022-07-29T14:38:54;5.13;;;2.60;;
44046;SDS011;29713;-33.888;151.150;2022-07-29T14:41:22;5.07;;;2.90;;
44046;SDS011;29713;-33.888;151.150;2022-07-29T14:43:49;3.90;;;2.40;;
44046;SDS011;29713;-33.888;151.150;2022-07-29T14:46:18;5.00;;;2.33;;
44046;SDS011;29713;-33.888;151.150;2022-07-29T14:48:46;5.97;;;3.17;;
44046;SDS011;29713;-33.888;151.150;2022-07-29T14:51:13;6.70;;;2.53;;
44046;SDS011;29713;-33.888;151.150;2022-07-29T14:53:41;7.90;;;2.77;;
44046;SDS011;29713;-33.888;151.150;2022-07-29T14:56:08;7.13;;;2.70;;
44046;SDS011;29713;-33.888;151.150;2022-07-29T14:58:36;4.50;;;2.63;;
44046;SDS011;29713;-33.888;151.150;2022-07-29T15:01:03;7.40;;;2.57;;
44046;SDS011;29713;-33.888;151.150;2022-07-29T15:03:31;6.43;;;2.50;;
44046;SDS011;29713;-33.888;151.150;2022-07-29T15:05:59;8.37;;;2.70;;
44046;SDS011;29713;-33.888;151.150;2022-07-29T15:08:26;6.40;;;2.83;;
44046;SDS011;29713;-33.888;151.150;2022-07-29T15:10:55;4.37;;;2.77;;
44046;SDS011;29713;-33.888;151.150;2022-07-29T15:13:26;5.77;;;2.70;;
44046;SDS011;29713;-33.888;151.150;2022-07-29T15:15:53;5.27;;;2.20;;
44046;SDS011;29713;-33.888;151.150;2022-07-29T15:18:20;8.90;;;2.97;;
44046;SDS011;29713;-33.888;151.150;2022-07-29T15:20:48;4.93;;;2.67;;
44046;SDS011;29713;-33.888;151.150;2022-07-29T15:23:15;5.97;;;2.43;;